createdAt,value
2018-06-15T00:00:19.452Z,96.34
2018-06-15T00:03:23.030Z,96.41
2018-06-15T00:06:26.753Z,96.51
2018-06-15T00:09:30.549Z,96.74
2018-06-15T00:12:34.252Z,96.55
2018-06-15T00:15:37.900Z,96.42
2018-06-15T00:18:41.455Z,96.45
2018-06-15T00:21:45.083Z,96.66
2018-06-15T00:24:48.841Z,96.65
2018-06-15T00:27:52.490Z,96.58
2018-06-15T00:30:56.115Z,96.44
2018-06-15T00:33:59.734Z,96.44
2018-06-15T00:37:03.347Z,96.53
2018-06-15T00:40:06.938Z,96.48
2018-06-15T00:43:10.477Z,96.50
2018-06-15T00:46:14.328Z,96.17
2018-06-15T00:49:17.959Z,96.38
2018-06-15T00:52:21.557Z,96.42
2018-06-15T00:55:25.116Z,96.54
2018-06-15T00:58:28.756Z,96.30
2018-06-15T01:01:32.317Z,95.86
2018-06-15T01:04:35.967Z,95.91
2018-06-15T01:07:39.613Z,95.69
2018-06-15T01:10:43.207Z,95.61
2018-06-15T01:13:46.854Z,95.68
2018-06-15T01:16:50.467Z,95.42
2018-06-15T01:19:54.172Z,95.72
2018-06-15T01:22:57.708Z,95.70
2018-06-15T01:26:01.858Z,95.71
2018-06-15T01:29:05.512Z,95.88
2018-06-15T01:32:09.146Z,95.86
2018-06-15T01:35:12.851Z,96.19
2018-06-15T01:38:16.663Z,96.25
2018-06-15T01:41:20.262Z,96.47
2018-06-15T01:44:23.832Z,96.61
2018-06-15T01:47:27.481Z,96.41
2018-06-15T01:50:31.074Z,96.41
2018-06-15T01:53:34.707Z,96.62
2018-06-15T01:56:38.367Z,96.66
2018-06-15T01:59:42.008Z,96.76
2018-06-15T02:02:45.632Z,96.89
2018-06-15T02:05:49.310Z,96.76
2018-06-15T02:08:52.933Z,96.60
2018-06-15T02:11:56.540Z,96.39
2018-06-15T02:15:00.121Z,96.11
2018-06-15T02:18:03.833Z,96.07
2018-06-15T02:21:07.638Z,96.29
2018-06-15T02:24:11.379Z,96.24
2018-06-15T02:27:14.960Z,96.23
2018-06-15T02:30:18.550Z,96.31
2018-06-15T02:33:22.179Z,96.07
2018-06-15T02:36:25.905Z,96.17
2018-06-15T02:39:29.529Z,96.31
2018-06-15T02:42:33.503Z,96.40
2018-06-15T02:45:37.083Z,96.25
2018-06-15T02:48:40.662Z,96.31
2018-06-15T02:51:44.318Z,96.31
2018-06-15T02:54:47.965Z,96.20
2018-06-15T02:57:51.574Z,96.23
2018-06-15T03:00:55.204Z,96.27
2018-06-15T03:03:58.943Z,96.09
2018-06-15T03:07:02.533Z,95.94
2018-06-15T03:10:06.127Z,95.86
2018-06-15T03:13:09.733Z,95.99
2018-06-15T03:16:13.420Z,96.05
2018-06-15T03:19:17.104Z,96.09
2018-06-15T03:22:20.694Z,96.20
2018-06-15T03:25:24.387Z,96.32
2018-06-15T03:28:27.945Z,96.34
2018-06-15T03:31:31.537Z,96.20
2018-06-15T03:34:35.073Z,96.05
2018-06-15T03:37:38.685Z,96.41
2018-06-15T03:40:42.349Z,96.47
2018-06-15T03:43:45.999Z,96.33
2018-06-15T03:46:49.547Z,96.24
2018-06-15T03:49:53.112Z,96.18
2018-06-15T03:52:56.733Z,96.29
2018-06-15T03:56:00.273Z,96.23
2018-06-15T03:59:04.143Z,96.29
2018-06-15T04:02:07.780Z,96.21
2018-06-15T04:05:11.410Z,96.03
2018-06-15T04:08:15.169Z,96.09
2018-06-15T04:11:18.853Z,96.13
2018-06-15T04:14:22.480Z,96.16
2018-06-15T04:17:26.058Z,96.00
2018-06-15T04:20:29.811Z,95.97
2018-06-15T04:23:33.670Z,96.09
2018-06-15T04:26:37.202Z,96.17
2018-06-15T04:29:40.883Z,96.06
2018-06-15T04:32:44.449Z,95.70
2018-06-15T04:35:48.041Z,95.70
2018-06-15T04:38:51.560Z,95.54
2018-06-15T04:41:55.299Z,95.35
2018-06-15T04:44:58.927Z,94.93
2018-06-15T04:48:02.516Z,94.77
2018-06-15T04:51:06.261Z,94.09
2018-06-15T04:54:09.824Z,94.16
2018-06-15T04:57:13.451Z,93.90
2018-06-15T05:00:21.016Z,92.94
2018-06-15T05:03:24.687Z,89.84
2018-06-15T05:06:28.376Z,85.29
2018-06-15T05:09:31.985Z,81.51
2018-06-15T05:12:35.602Z,75.62
2018-06-15T05:15:39.196Z,70.06
2018-06-15T05:18:42.938Z,67.98
2018-06-15T05:21:47.409Z,63.33
2018-06-15T05:24:51.101Z,61.42
2018-06-15T05:27:54.686Z,63.87
2018-06-15T05:30:58.326Z,64.71
2018-06-15T05:34:02.010Z,63.68
2018-06-15T05:37:05.626Z,64.07
2018-06-15T05:40:09.231Z,59.99
2018-06-15T05:43:12.900Z,54.16
2018-06-15T05:46:16.449Z,57.42
2018-06-15T05:49:20.035Z,57.28
2018-06-15T05:52:23.620Z,59.01
2018-06-15T05:55:27.283Z,60.90
2018-06-15T05:58:30.958Z,62.93
2018-06-15T06:01:34.681Z,68.06
2018-06-15T06:04:38.470Z,68.99
2018-06-15T06:07:42.055Z,73.65
2018-06-15T06:10:45.889Z,71.59
2018-06-15T06:13:49.601Z,72.53
2018-06-15T06:16:53.242Z,72.57
2018-06-15T06:19:56.826Z,70.31
2018-06-15T06:23:00.442Z,69.71
2018-06-15T06:26:04.262Z,68.90
2018-06-15T06:29:07.900Z,68.98
2018-06-15T06:32:11.542Z,65.25
2018-06-15T06:35:15.122Z,63.29
2018-06-15T06:38:18.762Z,64.69
2018-06-15T06:41:22.504Z,66.21
2018-06-15T06:44:26.151Z,67.89
2018-06-15T06:47:29.736Z,67.70
2018-06-15T06:50:33.412Z,67.74
2018-06-15T06:53:37.043Z,67.71
2018-06-15T06:56:40.825Z,65.37
2018-06-15T06:59:44.463Z,66.58
2018-06-15T07:02:48.150Z,67.23
2018-06-15T07:05:51.714Z,65.85
2018-06-15T07:08:55.478Z,68.76
2018-06-15T07:11:59.227Z,67.48
2018-06-15T07:15:02.945Z,66.80
2018-06-15T07:18:06.656Z,66.70
2018-06-15T07:21:10.364Z,62.95
2018-06-15T07:24:14.099Z,65.20
2018-06-15T07:27:17.932Z,60.94
2018-06-15T07:30:21.566Z,60.23
2018-06-15T07:33:25.356Z,66.22
2018-06-15T07:36:28.954Z,68.00
2018-06-15T07:39:32.584Z,63.28
2018-06-15T07:42:36.373Z,64.43
2018-06-15T07:45:39.992Z,61.56
2018-06-15T07:48:43.647Z,60.97
2018-06-15T07:51:47.485Z,62.82
2018-06-15T07:54:51.227Z,61.92
2018-06-15T07:57:54.871Z,62.86
2018-06-15T08:00:58.506Z,61.00
2018-06-15T08:04:04.263Z,65.20
2018-06-15T08:07:07.993Z,64.07
2018-06-15T08:10:11.629Z,65.46
2018-06-15T08:13:15.315Z,66.96
2018-06-15T08:16:18.984Z,64.83
2018-06-15T08:19:22.613Z,64.48
2018-06-15T08:22:26.331Z,67.63
2018-06-15T08:25:30.352Z,65.72
2018-06-15T08:28:34.054Z,64.88
2018-06-15T08:31:37.586Z,64.43
2018-06-15T08:34:41.279Z,63.93
2018-06-15T08:37:44.912Z,65.04
2018-06-15T08:40:48.597Z,66.93
2018-06-15T08:43:52.182Z,66.26
2018-06-15T08:46:55.784Z,64.45
2018-06-15T08:49:59.542Z,64.55
2018-06-15T08:53:03.191Z,63.83
2018-06-15T08:56:07.044Z,65.23
2018-06-15T08:59:10.658Z,64.96
2018-06-15T09:02:14.263Z,67.42
2018-06-15T09:05:17.849Z,66.54
2018-06-15T09:08:21.552Z,68.91
2018-06-15T09:11:25.183Z,67.67
2018-06-15T09:14:32.301Z,64.00
2018-06-15T09:17:36.318Z,64.49
2018-06-15T09:20:39.896Z,66.42
2018-06-15T09:23:43.567Z,63.26
2018-06-15T09:26:47.215Z,64.48
2018-06-15T09:29:50.891Z,62.36
2018-06-15T09:32:54.514Z,63.19
2018-06-15T09:35:58.212Z,64.90
2018-06-15T09:39:01.802Z,61.42
2018-06-15T09:42:05.499Z,61.60
2018-06-15T09:45:09.234Z,59.48
2018-06-15T09:48:12.893Z,58.36
2018-06-15T09:51:16.612Z,57.34
2018-06-15T09:54:20.272Z,56.21
2018-06-15T09:57:24.037Z,56.79
2018-06-15T10:00:33.069Z,54.16
2018-06-15T10:03:37.508Z,56.40
2018-06-15T10:06:41.123Z,53.48
2018-06-15T10:09:44.749Z,53.67
2018-06-15T10:12:48.407Z,57.66
2018-06-15T10:15:52.322Z,54.40
2018-06-15T10:18:56.038Z,54.86
2018-06-15T10:21:59.627Z,54.43
2018-06-15T10:25:03.463Z,56.11
2018-06-15T10:28:07.127Z,54.48
2018-06-15T10:31:11.223Z,55.50
2018-06-15T10:34:15.063Z,53.42
2018-06-15T10:37:18.738Z,46.83
2018-06-15T10:40:22.329Z,46.07
2018-06-15T10:43:25.959Z,50.20
2018-06-15T10:46:29.644Z,47.71
2018-06-15T10:49:33.345Z,44.05
2018-06-15T10:52:37.066Z,45.74
2018-06-15T10:55:40.742Z,46.71
2018-06-15T10:58:44.435Z,47.44
2018-06-15T11:01:48.199Z,48.28
2018-06-15T11:04:51.828Z,46.10
2018-06-15T11:07:55.400Z,48.58
2018-06-15T11:10:59.140Z,52.36
2018-06-15T11:14:02.847Z,49.72
2018-06-15T11:17:06.548Z,53.23
2018-06-15T11:20:10.238Z,54.29
2018-06-15T11:23:13.988Z,50.71
2018-06-15T11:26:17.724Z,49.32
2018-06-15T11:29:21.309Z,48.94
2018-06-15T11:32:24.984Z,47.78
2018-06-15T11:35:28.640Z,48.29
2018-06-15T11:38:32.359Z,47.14
2018-06-15T11:41:36.036Z,48.23
2018-06-15T11:44:39.655Z,45.49
2018-06-15T11:47:43.344Z,44.71
2018-06-15T11:50:46.984Z,46.42
2018-06-15T11:53:50.719Z,48.30
2018-06-15T11:56:54.593Z,50.81
2018-06-15T11:59:58.345Z,49.22
2018-06-15T12:03:02.079Z,49.06
2018-06-15T12:06:05.726Z,53.10
2018-06-15T12:09:10.378Z,51.99
2018-06-15T12:12:14.051Z,48.23
2018-06-15T12:15:17.729Z,47.40
2018-06-15T12:18:21.366Z,50.67
2018-06-15T12:21:28.313Z,49.11
2018-06-15T12:24:32.194Z,48.51
2018-06-15T12:27:35.847Z,49.36
2018-06-15T12:30:39.507Z,48.56
2018-06-15T12:33:43.184Z,48.54
2018-06-15T12:36:46.949Z,49.78
2018-06-15T12:39:50.892Z,47.64
2018-06-15T12:42:54.659Z,49.46
2018-06-15T12:45:58.430Z,49.48
2018-06-15T12:49:02.208Z,50.85
2018-06-15T12:52:05.875Z,49.83
2018-06-15T12:55:09.462Z,46.30
2018-06-15T12:58:13.161Z,46.29
2018-06-15T13:01:16.825Z,47.55
2018-06-15T13:04:20.460Z,50.67
2018-06-15T13:07:24.135Z,48.45
2018-06-15T13:10:27.890Z,48.56
2018-06-15T13:13:31.507Z,48.08
2018-06-15T13:16:35.522Z,47.43
2018-06-15T13:19:39.165Z,49.77
2018-06-15T13:22:43.026Z,49.10
2018-06-15T13:25:46.734Z,49.01
2018-06-15T13:28:50.424Z,47.39
2018-06-15T13:31:54.120Z,47.39
2018-06-15T13:34:57.798Z,46.88
2018-06-15T13:38:01.502Z,48.03
2018-06-15T13:41:05.191Z,45.99
2018-06-15T13:44:08.884Z,46.33
2018-06-15T13:47:12.601Z,46.38
2018-06-15T13:50:16.302Z,47.08
2018-06-15T13:53:19.932Z,45.12
2018-06-15T13:56:23.540Z,45.70
2018-06-15T13:59:27.165Z,46.15
2018-06-15T14:02:30.796Z,43.69
2018-06-15T14:05:34.442Z,46.69
2018-06-15T14:08:38.337Z,48.78
2018-06-15T14:11:41.997Z,46.62
2018-06-15T14:14:45.686Z,44.83
2018-06-15T14:17:49.430Z,48.17
2018-06-15T14:20:53.321Z,53.24
2018-06-15T14:23:57.122Z,48.83
2018-06-15T14:27:00.894Z,44.91
2018-06-15T14:30:04.896Z,47.88
2018-06-15T14:33:08.601Z,51.57
2018-06-15T14:36:12.377Z,51.75
2018-06-15T14:39:16.871Z,44.69
2018-06-15T14:42:20.572Z,45.50
2018-06-15T14:45:24.196Z,44.01
2018-06-15T14:48:27.916Z,44.69
2018-06-15T14:51:31.661Z,44.08
2018-06-15T14:54:35.422Z,51.16
2018-06-15T14:57:39.167Z,46.17
2018-06-15T15:00:42.812Z,45.24
2018-06-15T15:03:46.492Z,44.86
2018-06-15T15:06:50.036Z,43.92
2018-06-15T15:09:53.703Z,48.60
2018-06-15T15:12:57.522Z,45.65
2018-06-15T15:16:01.264Z,45.56
2018-06-15T15:19:05.583Z,44.66
2018-06-15T15:22:09.125Z,47.98
2018-06-15T15:25:12.967Z,48.33
2018-06-15T15:28:16.692Z,49.61
2018-06-15T15:31:20.290Z,51.93
2018-06-15T15:34:23.857Z,53.04
2018-06-15T15:37:27.467Z,52.71
2018-06-15T15:40:31.317Z,52.41
2018-06-15T15:43:35.017Z,52.39
2018-06-15T15:46:38.736Z,53.06
2018-06-15T15:49:42.568Z,54.21
2018-06-15T15:52:46.194Z,55.18
2018-06-15T15:55:50.076Z,53.82
2018-06-15T15:58:53.945Z,54.28
2018-06-15T16:01:57.663Z,53.61
2018-06-15T16:05:01.969Z,55.30
2018-06-15T16:08:05.723Z,56.65
2018-06-15T16:11:09.398Z,57.95
2018-06-15T16:14:13.087Z,56.69
2018-06-15T16:17:16.852Z,55.63
2018-06-15T16:20:20.487Z,56.28
2018-06-15T16:23:24.307Z,55.70
2018-06-15T16:26:27.893Z,52.25
2018-06-15T16:29:31.780Z,51.46
2018-06-15T16:32:35.530Z,50.91
2018-06-15T16:35:39.184Z,51.16
2018-06-15T16:38:42.906Z,52.21
2018-06-15T16:41:46.743Z,54.25
2018-06-15T16:44:50.531Z,53.41
2018-06-15T16:47:54.174Z,56.02
2018-06-15T16:50:57.798Z,55.94
2018-06-15T16:54:01.434Z,55.32
2018-06-15T16:57:05.077Z,54.96
2018-06-15T17:00:08.744Z,56.01
2018-06-15T17:03:12.373Z,56.52
2018-06-15T17:06:16.079Z,57.47
2018-06-15T17:09:19.699Z,56.29
2018-06-15T17:12:23.381Z,51.15
2018-06-15T17:15:27.058Z,51.19
2018-06-15T17:18:30.837Z,52.91
2018-06-15T17:21:34.641Z,51.13
2018-06-15T17:24:38.504Z,48.60
2018-06-15T17:27:42.168Z,49.50
2018-06-15T17:30:45.748Z,49.26
2018-06-15T17:33:49.514Z,46.10
2018-06-15T17:36:53.460Z,45.75
2018-06-15T17:39:57.231Z,48.85
2018-06-15T17:43:01.019Z,51.81
2018-06-15T17:46:05.104Z,53.03
2018-06-15T17:49:09.444Z,54.77
2018-06-15T17:52:13.125Z,54.80
2018-06-15T17:55:16.823Z,54.38
2018-06-15T17:58:20.410Z,56.02
2018-06-15T18:01:24.143Z,56.40
2018-06-15T18:04:27.777Z,55.54
2018-06-15T18:07:31.824Z,55.25
2018-06-15T18:10:35.570Z,56.82
2018-06-15T18:13:39.216Z,57.92
2018-06-15T18:16:42.927Z,59.93
2018-06-15T18:19:46.720Z,60.78
2018-06-15T18:22:50.379Z,61.28
2018-06-15T18:25:54.090Z,62.17
2018-06-15T18:28:57.852Z,62.74
2018-06-15T18:32:01.643Z,63.00
2018-06-15T18:35:05.468Z,63.26
2018-06-15T18:38:09.128Z,64.03
2018-06-15T18:41:12.770Z,63.97
2018-06-15T18:44:16.435Z,64.54
2018-06-15T18:47:20.044Z,65.05
2018-06-15T18:50:23.729Z,65.94
2018-06-15T18:53:27.557Z,66.28
2018-06-15T18:56:31.330Z,66.75
2018-06-15T18:59:35.308Z,66.26
2018-06-15T19:02:39.179Z,66.73
2018-06-15T19:05:42.923Z,67.28
2018-06-15T19:08:46.534Z,67.46
2018-06-15T19:11:50.143Z,67.65
2018-06-15T19:14:54.051Z,68.42
2018-06-15T19:17:57.725Z,69.19
2018-06-15T19:21:01.384Z,69.41
2018-06-15T19:24:05.171Z,69.70
2018-06-15T19:27:09.138Z,70.23
2018-06-15T19:30:12.839Z,70.26
2018-06-15T19:33:16.560Z,70.46
2018-06-15T19:36:20.258Z,70.88
2018-06-15T19:39:23.903Z,71.45
2018-06-15T19:42:27.640Z,71.86
2018-06-15T19:45:31.211Z,71.87
2018-06-15T19:48:34.976Z,72.05
2018-06-15T19:51:38.686Z,72.02
2018-06-15T19:54:42.821Z,72.13
2018-06-15T19:57:46.589Z,73.17
2018-06-15T20:00:50.318Z,72.96
2018-06-15T20:03:54.291Z,73.86
2018-06-15T20:06:58.030Z,73.98
2018-06-15T20:10:01.751Z,73.56
2018-06-15T20:13:05.609Z,74.44
2018-06-15T20:16:09.763Z,75.19
2018-06-15T20:19:13.495Z,75.43
2018-06-15T20:22:17.193Z,75.52
2018-06-15T20:25:21.064Z,75.66
2018-06-15T20:28:24.846Z,75.38
2018-06-15T20:31:28.602Z,74.18
2018-06-15T20:34:32.340Z,74.86
2018-06-15T20:37:36.083Z,75.33
2018-06-15T20:40:39.864Z,75.37
2018-06-15T20:43:43.614Z,75.67
2018-06-15T20:46:47.249Z,75.75
2018-06-15T20:49:50.930Z,75.66
2018-06-15T20:52:54.851Z,74.66
2018-06-15T20:55:58.612Z,74.55
2018-06-15T20:59:02.342Z,74.83
2018-06-15T21:02:06.130Z,74.91
2018-06-15T21:05:09.836Z,74.62
2018-06-15T21:08:13.555Z,75.07
2018-06-15T21:11:17.341Z,75.46
2018-06-15T21:14:21.054Z,75.26
2018-06-15T21:17:24.729Z,75.94
2018-06-15T21:20:28.425Z,75.82
2018-06-15T21:23:32.251Z,74.98
2018-06-15T21:26:35.957Z,75.46
2018-06-15T21:29:39.660Z,75.84
2018-06-15T21:32:43.450Z,75.81
2018-06-15T21:35:47.146Z,75.20
2018-06-15T21:38:50.725Z,75.61
2018-06-15T21:41:54.500Z,76.01
2018-06-15T21:44:58.179Z,75.31
2018-06-15T21:48:01.875Z,75.33
2018-06-15T21:51:05.652Z,75.30
2018-06-15T21:54:09.314Z,75.17
2018-06-15T21:57:12.999Z,74.55
2018-06-15T22:00:16.757Z,74.27
2018-06-15T22:03:20.376Z,74.76
2018-06-15T22:06:23.974Z,75.15
2018-06-15T22:09:31.523Z,76.52
2018-06-15T22:12:36.434Z,76.52
2018-06-15T22:15:41.169Z,75.73
2018-06-15T22:18:46.451Z,75.29
2018-06-15T22:21:53.087Z,75.13
2018-06-15T22:24:57.611Z,75.29
2018-06-15T22:28:01.261Z,73.94
2018-06-15T22:31:04.907Z,74.49
2018-06-15T22:34:08.516Z,75.68
2018-06-15T22:37:12.144Z,75.56
2018-06-15T22:40:15.754Z,75.47
2018-06-15T22:43:19.420Z,76.37
2018-06-15T22:46:23.502Z,76.23
2018-06-15T22:49:27.260Z,77.16
2018-06-15T22:52:31.030Z,76.32
2018-06-15T22:55:34.821Z,76.86
2018-06-15T22:58:38.415Z,77.36
2018-06-15T23:01:42.007Z,77.49
2018-06-15T23:04:45.865Z,78.14
2018-06-15T23:07:49.530Z,78.06
2018-06-15T23:10:53.265Z,76.23
2018-06-15T23:13:56.981Z,75.75
2018-06-15T23:17:00.551Z,75.55
2018-06-15T23:20:04.197Z,76.25
2018-06-15T23:23:07.855Z,76.60
2018-06-15T23:26:11.591Z,75.48
2018-06-15T23:29:15.301Z,75.82
2018-06-15T23:32:19.012Z,74.62
2018-06-15T23:35:22.625Z,76.25
2018-06-15T23:38:26.287Z,75.26
2018-06-15T23:41:29.912Z,75.88
2018-06-15T23:44:33.481Z,74.25
2018-06-15T23:47:37.115Z,75.36
2018-06-15T23:50:40.722Z,75.19
2018-06-15T23:53:44.473Z,74.53
2018-06-15T23:56:48.161Z,75.40
2018-06-15T23:59:51.752Z,75.78
